Time;durP1;ratioP1;P1;durP2;ratioP2;P2;SDS_P1;SDS_P2;PMS_P1;PMS_P2;Temp;Humidity;BMP_temperature;BMP_pressure;BME280_temperature;BME280_humidity;BME280_pressure;Samples;Min_cycle;Max_cycle;Signal;HPM_P1;HPM_P2
2022/03/18 00:01:52;;;;;;;11.27;2.65;;;;;;;;;;5028485;28;20054;-83
2022/03/18 00:04:19;;;;;;;11.07;2.78;;;;;;;;;;5008855;28;20084;-82
2022/03/18 00:06:45;;;;;;;10.38;2.80;;;;;;;;;;5022916;28;20093;-83
2022/03/18 00:09:12;;;;;;;11.98;2.55;;;;;;;;;;5012248;28;20108;-82
2022/03/18 00:11:39;;;;;;;9.50;2.67;;;;;;;;;;5011032;28;20049;-83
2022/03/18 00:14:05;;;;;;;9.65;2.38;;;;;;;;;;5004847;28;20480;-83
2022/03/18 00:16:32;;;;;;;9.32;2.72;;;;;;;;;;5011434;28;20061;-83
2022/03/18 00:19:00;;;;;;;9.13;2.45;;;;;;;;;;5011835;28;20529;-83
2022/03/18 00:21:27;;;;;;;14.52;2.95;;;;;;;;;;5012479;28;20053;-83
2022/03/18 00:23:53;;;;;;;9.50;2.97;;;;;;;;;;5016311;28;20089;-82
2022/03/18 00:26:20;;;;;;;7.10;2.78;;;;;;;;;;5029365;28;20097;-82
2022/03/18 00:28:46;;;;;;;11.20;3.60;;;;;;;;;;5017526;28;20112;-82
2022/03/18 00:31:13;;;;;;;8.70;3.17;;;;;;;;;;5023900;28;20054;-83
2022/03/18 00:33:39;;;;;;;10.68;3.42;;;;;;;;;;5028608;28;20050;-82
2022/03/18 00:36:06;;;;;;;7.85;3.30;;;;;;;;;;5011820;28;20053;-82
2022/03/18 00:38:33;;;;;;;12.45;3.63;;;;;;;;;;5028893;28;20069;-82
2022/03/18 00:41:00;;;;;;;12.48;4.13;;;;;;;;;;5029482;28;20925;-82
2022/03/18 00:43:27;;;;;;;11.63;4.05;;;;;;;;;;5029049;28;20108;-82
2022/03/18 00:45:53;;;;;;;13.32;3.97;;;;;;;;;;5029941;28;20081;-82
2022/03/18 00:53:53;;;;;;;9.95;3.65;;;;;;;;;;5030927;28;20984;-82
2022/03/18 00:56:19;;;;;;;8.98;3.92;;;;;;;;;;5010480;28;20619;-83
2022/03/18 00:58:46;;;;;;;12.43;4.00;;;;;;;;;;5012089;28;20038;-83
2022/03/18 01:01:12;;;;;;;17.10;4.20;;;;;;;;;;5029630;28;20054;-82
2022/03/18 01:03:39;;;;;;;11.43;3.90;;;;;;;;;;5011602;28;20060;-82
2022/03/18 01:06:05;;;;;;;11.15;3.90;;;;;;;;;;5028435;28;20100;-82
2022/03/18 01:08:31;;;;;;;12.35;4.35;;;;;;;;;;5011397;28;20861;-82
2022/03/18 01:11:01;;;;;;;9.82;3.67;;;;;;;;;;5011683;28;20093;-82
2022/03/18 01:13:27;;;;;;;8.40;3.47;;;;;;;;;;5011456;28;20076;-82
2022/03/18 01:15:53;;;;;;;8.77;3.85;;;;;;;;;;5011331;28;21011;-82
2022/03/18 01:18:20;;;;;;;9.43;3.92;;;;;;;;;;5011048;28;20054;-83
2022/03/18 01:20:46;;;;;;;12.57;4.57;;;;;;;;;;5030461;28;20934;-82
2022/03/18 01:23:13;;;;;;;12.05;4.00;;;;;;;;;;5014616;28;20057;-82
2022/03/18 01:25:39;;;;;;;10.93;3.75;;;;;;;;;;5031939;28;20110;-82
2022/03/18 01:28:06;;;;;;;9.68;4.00;;;;;;;;;;5014728;28;20050;-82
2022/03/18 01:30:33;;;;;;;9.90;4.05;;;;;;;;;;5032007;28;20829;-82
2022/03/18 01:33:02;;;;;;;10.30;3.60;;;;;;;;;;5031965;28;20526;-82
2022/03/18 01:35:29;;;;;;;10.32;3.55;;;;;;;;;;5012014;28;20117;-81
2022/03/18 01:37:55;;;;;;;7.57;3.22;;;;;;;;;;5027625;28;20112;-82
2022/03/18 01:40:22;;;;;;;12.20;3.33;;;;;;;;;;5014109;28;20062;-82
2022/03/18 01:42:48;;;;;;;12.25;3.85;;;;;;;;;;5031227;28;20053;-82
2022/03/18 01:45:14;;;;;;;9.57;3.70;;;;;;;;;;5032209;28;20776;-82
2022/03/18 01:47:43;;;;;;;11.70;4.55;;;;;;;;;;5014266;28;20132;-82
2022/03/18 01:50:10;;;;;;;12.43;5.13;;;;;;;;;;5013965;28;20069;-82
2022/03/18 01:52:37;;;;;;;9.63;3.85;;;;;;;;;;5007730;28;20504;-82
2022/03/18 01:55:04;;;;;;;11.25;3.88;;;;;;;;;;5014280;28;20120;-82
2022/03/18 01:57:31;;;;;;;7.40;3.78;;;;;;;;;;5014217;28;20060;-82
2022/03/18 01:59:57;;;;;;;12.18;3.95;;;;;;;;;;5014329;28;20125;-82
2022/03/18 02:02:25;;;;;;;10.38;3.50;;;;;;;;;;5013698;28;20054;-82
2022/03/18 02:04:52;;;;;;;6.93;3.38;;;;;;;;;;5031603;28;20061;-82
2022/03/18 02:07:18;;;;;;;11.55;3.50;;;;;;;;;;5013196;28;20493;-82
2022/03/18 02:09:44;;;;;;;8.38;3.47;;;;;;;;;;5032107;28;20084;-82
2022/03/18 02:12:11;;;;;;;12.57;4.10;;;;;;;;;;5032261;28;20096;-82
2022/03/18 02:14:37;;;;;;;7.93;3.00;;;;;;;;;;5013946;28;20124;-82
2022/03/18 02:17:05;;;;;;;10.77;3.20;;;;;;;;;;5014248;28;20054;-82
2022/03/18 02:19:32;;;;;;;11.15;3.85;;;;;;;;;;5013167;28;20064;-82
2022/03/18 02:21:58;;;;;;;12.20;3.53;;;;;;;;;;5014653;28;20073;-82
2022/03/18 02:24:25;;;;;;;9.40;3.38;;;;;;;;;;5031575;28;20054;-82
2022/03/18 02:26:52;;;;;;;12.15;3.88;;;;;;;;;;5005302;28;20054;-82
2022/03/18 02:29:19;;;;;;;9.20;3.17;;;;;;;;;;5031381;28;20101;-82
2022/03/18 02:31:46;;;;;;;11.23;2.92;;;;;;;;;;5029806;28;20065;-82
2022/03/18 02:34:13;;;;;;;7.90;3.40;;;;;;;;;;5015846;28;20139;-82
2022/03/18 02:36:39;;;;;;;9.35;2.80;;;;;;;;;;5011637;28;20619;-82
2022/03/18 02:39:05;;;;;;;11.48;3.17;;;;;;;;;;5017487;28;20050;-82
2022/03/18 02:41:35;;;;;;;7.82;2.58;;;;;;;;;;5032377;28;20097;-82
2022/03/18 02:44:01;;;;;;;9.05;2.42;;;;;;;;;;5020717;28;20105;-82
2022/03/18 02:46:32;;;;;;;13.68;2.60;;;;;;;;;;5013095;28;20524;-82
2022/03/18 02:49:00;;;;;;;5.78;2.30;;;;;;;;;;5031360;28;20054;-82
2022/03/18 02:51:27;;;;;;;8.70;3.20;;;;;;;;;;5031754;28;20556;-83
2022/03/18 02:53:54;;;;;;;9.43;3.13;;;;;;;;;;5030639;28;20505;-83
2022/03/18 02:56:20;;;;;;;8.80;2.60;;;;;;;;;;5030551;28;20057;-83
2022/03/18 02:58:47;;;;;;;8.65;2.70;;;;;;;;;;5012647;28;20053;-83
2022/03/18 03:01:13;;;;;;;10.27;2.97;;;;;;;;;;5013190;28;20207;-82
2022/03/18 03:03:40;;;;;;;7.35;3.53;;;;;;;;;;5013399;28;20054;-82
2022/03/18 03:08:51;;;;;;;7.43;3.08;;;;;;;;;;5025618;28;20058;-83
2022/03/18 03:11:18;;;;;;;9.55;2.67;;;;;;;;;;5030785;28;20109;-83
2022/03/18 03:13:44;;;;;;;8.05;2.70;;;;;;;;;;5030654;28;20062;-82
2022/03/18 03:16:11;;;;;;;6.97;2.65;;;;;;;;;;5030461;28;20509;-83
2022/03/18 03:18:38;;;;;;;5.80;2.38;;;;;;;;;;5034924;28;20053;-83
2022/03/18 03:21:04;;;;;;;9.68;2.55;;;;;;;;;;5020017;28;20046;-83
2022/03/18 03:23:30;;;;;;;8.10;2.70;;;;;;;;;;5038225;28;20065;-83
2022/03/18 03:25:57;;;;;;;10.30;2.63;;;;;;;;;;5036847;28;20058;-83
2022/03/18 03:28:23;;;;;;;6.38;2.58;;;;;;;;;;5038480;28;20170;-83
2022/03/18 03:30:50;;;;;;;12.43;2.60;;;;;;;;;;5019274;28;20698;-83
2022/03/18 03:33:18;;;;;;;9.88;2.42;;;;;;;;;;5019136;28;20102;-83
2022/03/18 03:35:45;;;;;;;8.07;2.47;;;;;;;;;;5019040;28;20058;-83
2022/03/18 03:38:14;;;;;;;12.43;2.55;;;;;;;;;;5017817;28;20517;-83
2022/03/18 03:40:41;;;;;;;7.22;2.55;;;;;;;;;;5018216;28;20054;-83
2022/03/18 03:43:08;;;;;;;11.50;2.70;;;;;;;;;;5031817;28;20096;-83
2022/03/18 03:45:36;;;;;;;9.15;2.53;;;;;;;;;;5032869;28;20104;-83
2022/03/18 03:48:03;;;;;;;11.45;3.03;;;;;;;;;;5033669;28;20058;-82
2022/03/18 03:50:29;;;;;;;11.38;2.65;;;;;;;;;;5014780;28;20179;-83
2022/03/18 03:52:56;;;;;;;7.93;2.65;;;;;;;;;;5031300;28;20072;-83
2022/03/18 03:55:22;;;;;;;9.93;2.67;;;;;;;;;;5033041;28;20054;-83
2022/03/18 03:57:49;;;;;;;12.35;2.85;;;;;;;;;;5030714;28;20077;-83
2022/03/18 04:00:15;;;;;;;12.77;2.85;;;;;;;;;;5013731;28;20104;-83
2022/03/18 04:02:43;;;;;;;8.18;2.63;;;;;;;;;;5031589;28;20054;-83
2022/03/18 04:05:10;;;;;;;8.85;2.60;;;;;;;;;;5031961;28;20523;-83
2022/03/18 04:07:37;;;;;;;10.60;2.90;;;;;;;;;;5031293;28;20343;-83
2022/03/18 04:10:04;;;;;;;10.18;2.72;;;;;;;;;;5014914;28;20116;-83
2022/03/18 04:12:32;;;;;;;5.97;2.58;;;;;;;;;;5023099;28;20907;-83
2022/03/18 04:14:59;;;;;;;11.13;3.00;;;;;;;;;;5008179;28;20054;-83
2022/03/18 04:17:26;;;;;;;10.93;3.10;;;;;;;;;;5030629;28;20038;-83
2022/03/18 04:19:53;;;;;;;7.85;2.65;;;;;;;;;;5008146;28;20117;-83
2022/03/18 04:22:20;;;;;;;7.90;2.70;;;;;;;;;;5013782;28;20601;-83
2022/03/18 04:24:47;;;;;;;9.23;2.80;;;;;;;;;;5014499;28;20504;-83
2022/03/18 04:27:13;;;;;;;10.57;2.38;;;;;;;;;;5031905;28;20058;-83
2022/03/18 04:29:39;;;;;;;8.98;2.60;;;;;;;;;;5013549;28;20112;-83
2022/03/18 04:32:06;;;;;;;7.88;2.70;;;;;;;;;;5031047;28;20073;-82
2022/03/18 04:34:32;;;;;;;10.88;3.17;;;;;;;;;;5030271;28;20062;-82
2022/03/18 04:36:59;;;;;;;7.28;2.55;;;;;;;;;;5029669;28;20861;-83
2022/03/18 04:39:25;;;;;;;9.80;2.67;;;;;;;;;;5013767;28;20101;-82
2022/03/18 04:41:52;;;;;;;7.85;2.50;;;;;;;;;;5013418;28;20819;-83
2022/03/18 04:44:18;;;;;;;7.68;2.58;;;;;;;;;;5031075;28;20054;-83
2022/03/18 04:46:48;;;;;;;8.35;2.63;;;;;;;;;;5006044;28;20509;-82
2022/03/18 04:49:14;;;;;;;11.10;2.92;;;;;;;;;;5012628;28;20054;-83
2022/03/18 04:51:41;;;;;;;9.52;3.08;;;;;;;;;;5013437;28;20072;-83
2022/03/18 04:54:07;;;;;;;8.70;2.45;;;;;;;;;;5031421;28;20058;-83
2022/03/18 04:59:19;;;;;;;9.15;2.60;;;;;;;;;;5031511;28;20046;-83
2022/03/18 05:01:46;;;;;;;7.93;2.50;;;;;;;;;;5014697;28;20077;-83
2022/03/18 05:04:13;;;;;;;7.00;2.40;;;;;;;;;;5014473;28;20046;-83
2022/03/18 05:06:39;;;;;;;9.35;2.97;;;;;;;;;;5013660;28;20049;-83
2022/03/18 05:09:06;;;;;;;7.82;2.50;;;;;;;;;;5012630;28;20054;-83
2022/03/18 05:11:32;;;;;;;8.75;2.20;;;;;;;;;;5012139;28;20077;-83
2022/03/18 05:13:59;;;;;;;7.25;2.30;;;;;;;;;;5031192;28;20077;-83
2022/03/18 05:16:26;;;;;;;7.25;2.72;;;;;;;;;;5013329;28;20050;-84
2022/03/18 05:18:52;;;;;;;12.20;2.75;;;;;;;;;;5013807;28;20054;-83
2022/03/18 05:21:19;;;;;;;9.55;2.35;;;;;;;;;;5011030;28;20053;-84
2022/03/18 05:23:46;;;;;;;11.65;2.90;;;;;;;;;;5020556;28;20105;-83
2022/03/18 05:26:13;;;;;;;9.93;2.67;;;;;;;;;;5013405;28;20053;-83
2022/03/18 05:28:40;;;;;;;8.82;2.53;;;;;;;;;;5029856;28;20054;-83
2022/03/18 05:31:07;;;;;;;8.27;2.83;;;;;;;;;;5012511;28;20073;-83
2022/03/18 05:33:34;;;;;;;8.55;2.78;;;;;;;;;;5013115;28;20081;-84
2022/03/18 05:36:00;;;;;;;10.20;2.63;;;;;;;;;;5011473;28;20824;-83
2022/03/18 05:38:26;;;;;;;13.15;2.83;;;;;;;;;;5012352;28;20591;-83
2022/03/18 05:40:53;;;;;;;9.02;2.97;;;;;;;;;;5012123;28;20046;-84
2022/03/18 05:43:19;;;;;;;15.10;3.40;;;;;;;;;;5009337;28;20054;-83
2022/03/18 05:45:46;;;;;;;7.80;2.72;;;;;;;;;;5011437;28;20131;-83
2022/03/18 05:48:12;;;;;;;11.63;3.17;;;;;;;;;;5030695;28;20042;-83
2022/03/18 05:50:39;;;;;;;9.38;2.75;;;;;;;;;;5029589;28;20087;-83
2022/03/18 05:53:05;;;;;;;9.30;3.28;;;;;;;;;;5013949;28;20050;-83
2022/03/18 05:58:18;;;;;;;10.82;3.50;;;;;;;;;;5028967;28;20978;-84
2022/03/18 06:00:45;;;;;;;11.48;3.85;;;;;;;;;;5011441;28;20108;-84
2022/03/18 06:03:13;;;;;;;9.05;2.63;;;;;;;;;;5012154;28;20130;-84
2022/03/18 06:05:42;;;;;;;7.65;2.97;;;;;;;;;;5011574;28;20058;-84
2022/03/18 06:13:40;;;;;;;7.72;2.80;;;;;;;;;;5042113;28;20635;-84
2022/03/18 06:16:06;;;;;;;10.27;2.80;;;;;;;;;;5051816;28;20088;-84
2022/03/18 06:18:38;;;;;;;9.35;3.03;;;;;;;;;;5039037;28;20129;-84
2022/03/18 06:21:08;;;;;;;9.35;3.17;;;;;;;;;;5029936;28;20058;-84
2022/03/18 06:23:34;;;;;;;6.70;2.50;;;;;;;;;;4994705;28;20113;-84
2022/03/18 06:26:01;;;;;;;9.52;3.00;;;;;;;;;;4993138;28;20054;-84
2022/03/18 06:28:27;;;;;;;8.35;3.17;;;;;;;;;;5002510;28;20054;-84
2022/03/18 06:30:54;;;;;;;8.50;3.20;;;;;;;;;;5011191;28;20038;-84
2022/03/18 06:33:20;;;;;;;12.88;3.50;;;;;;;;;;5010999;28;20148;-84
2022/03/18 06:35:47;;;;;;;10.95;3.50;;;;;;;;;;5009282;28;20124;-83
2022/03/18 06:38:13;;;;;;;9.75;3.35;;;;;;;;;;5011109;28;20053;-84
2022/03/18 06:40:40;;;;;;;9.15;3.53;;;;;;;;;;5010627;28;20109;-84
2022/03/18 06:43:07;;;;;;;14.55;4.05;;;;;;;;;;5011508;28;20526;-84
2022/03/18 06:45:33;;;;;;;9.45;3.60;;;;;;;;;;5010235;28;20058;-84
2022/03/18 06:48:00;;;;;;;12.60;3.10;;;;;;;;;;4999029;28;20494;-84
2022/03/18 06:50:26;;;;;;;10.32;3.38;;;;;;;;;;5001492;28;20517;-84
2022/03/18 06:52:52;;;;;;;9.43;3.47;;;;;;;;;;5012297;28;20109;-84
2022/03/18 06:55:19;;;;;;;10.38;3.95;;;;;;;;;;5011996;28;20478;-85
2022/03/18 06:57:45;;;;;;;10.45;3.95;;;;;;;;;;5011234;28;20054;-85
2022/03/18 07:00:12;;;;;;;13.15;3.58;;;;;;;;;;5009919;28;20572;-84
2022/03/18 07:02:38;;;;;;;10.38;3.35;;;;;;;;;;5011126;28;20039;-84
2022/03/18 07:05:05;;;;;;;11.18;3.60;;;;;;;;;;5011278;28;20058;-84
2022/03/18 07:07:32;;;;;;;11.02;3.92;;;;;;;;;;4993284;28;20066;-85
2022/03/18 07:09:58;;;;;;;16.45;5.18;;;;;;;;;;5009393;28;20054;-84
2022/03/18 07:12:24;;;;;;;9.75;3.72;;;;;;;;;;4993331;28;20649;-84
2022/03/18 07:14:51;;;;;;;10.85;3.92;;;;;;;;;;5017199;28;20146;-84
2022/03/18 07:20:09;;;;;;;11.77;3.95;;;;;;;;;;5010788;28;20085;-85
2022/03/18 07:22:35;;;;;;;12.68;4.03;;;;;;;;;;5009407;28;20058;-84
2022/03/18 07:25:02;;;;;;;10.93;4.10;;;;;;;;;;5009524;28;20042;-84
2022/03/18 07:27:29;;;;;;;11.68;4.18;;;;;;;;;;4992644;28;20587;-84
2022/03/18 07:30:01;;;;;;;11.85;4.35;;;;;;;;;;4992695;28;20051;-84
2022/03/18 07:32:28;;;;;;;16.30;4.35;;;;;;;;;;5005749;28;20206;-84
2022/03/18 07:34:55;;;;;;;13.40;4.45;;;;;;;;;;4983106;28;20109;-84
2022/03/18 07:37:21;;;;;;;9.68;4.75;;;;;;;;;;5007608;28;20051;-84
2022/03/18 07:39:48;;;;;;;10.23;4.78;;;;;;;;;;5010306;28;20109;-85
2022/03/18 07:42:14;;;;;;;14.68;5.18;;;;;;;;;;4992068;28;20157;-84
2022/03/18 07:44:40;;;;;;;14.63;5.35;;;;;;;;;;5014240;28;20055;-84
2022/03/18 07:47:07;;;;;;;14.45;5.38;;;;;;;;;;4998294;28;20058;-85
2022/03/18 07:49:33;;;;;;;16.88;5.75;;;;;;;;;;4981294;28;20082;-85
2022/03/18 07:52:00;;;;;;;11.52;5.20;;;;;;;;;;4999942;28;20117;-85
2022/03/18 07:54:26;;;;;;;12.30;5.25;;;;;;;;;;5007427;28;20879;-85
2022/03/18 07:56:54;;;;;;;11.30;4.95;;;;;;;;;;5007340;28;20062;-85
2022/03/18 07:59:20;;;;;;;9.82;5.07;;;;;;;;;;5001151;28;20058;-85
2022/03/18 08:01:46;;;;;;;12.77;5.18;;;;;;;;;;5001399;28;20101;-85
2022/03/18 08:04:13;;;;;;;15.13;5.38;;;;;;;;;;5009302;28;20055;-84
2022/03/18 08:06:40;;;;;;;14.48;5.55;;;;;;;;;;5015036;28;20062;-85
2022/03/18 08:09:06;;;;;;;13.90;6.00;;;;;;;;;;5026101;28;20648;-85
2022/03/18 08:11:33;;;;;;;14.35;5.60;;;;;;;;;;4990403;28;20107;-85
2022/03/18 08:13:59;;;;;;;14.43;6.05;;;;;;;;;;4999779;28;20109;-85
2022/03/18 08:16:26;;;;;;;19.88;6.93;;;;;;;;;;5008420;28;20050;-85
2022/03/18 08:18:56;;;;;;;17.67;7.93;;;;;;;;;;5006878;28;20064;-86
2022/03/18 08:21:23;;;;;;;16.27;6.85;;;;;;;;;;4998038;28;20576;-85
2022/03/18 08:23:50;;;;;;;17.27;6.97;;;;;;;;;;5007445;28;21103;-85
2022/03/18 08:26:16;;;;;;;16.13;6.68;;;;;;;;;;5017173;28;20078;-85
2022/03/18 08:28:43;;;;;;;14.20;6.65;;;;;;;;;;4987957;28;20050;-85
2022/03/18 08:31:09;;;;;;;15.00;6.28;;;;;;;;;;4984314;28;20477;-85
2022/03/18 08:33:36;;;;;;;14.52;6.93;;;;;;;;;;5013110;28;20101;-86
2022/03/18 08:36:05;;;;;;;18.90;6.50;;;;;;;;;;5003065;28;20521;-86
2022/03/18 08:38:31;;;;;;;16.33;6.60;;;;;;;;;;5006445;28;20058;-86
2022/03/18 08:40:58;;;;;;;14.90;5.90;;;;;;;;;;4994793;28;20050;-86
2022/03/18 08:43:24;;;;;;;12.82;6.15;;;;;;;;;;5006947;28;20924;-84
2022/03/18 08:45:53;;;;;;;15.35;6.15;;;;;;;;;;4971943;28;20113;-84
2022/03/18 08:48:20;;;;;;;14.23;5.65;;;;;;;;;;4985897;28;20050;-84
2022/03/18 08:50:46;;;;;;;13.63;4.88;;;;;;;;;;5006411;28;20058;-84
2022/03/18 08:53:12;;;;;;;14.75;5.28;;;;;;;;;;4989298;28;20498;-84
2022/03/18 08:55:40;;;;;;;12.55;5.10;;;;;;;;;;5007241;28;20148;-84
2022/03/18 08:58:08;;;;;;;11.20;5.03;;;;;;;;;;5004074;28;20050;-84
2022/03/18 09:00:34;;;;;;;19.30;4.65;;;;;;;;;;5006089;28;20513;-84
2022/03/18 09:03:01;;;;;;;10.70;4.18;;;;;;;;;;4995678;28;20070;-84
2022/03/18 09:05:29;;;;;;;9.80;3.63;;;;;;;;;;4971562;28;20092;-84
2022/03/18 09:07:56;;;;;;;16.30;3.70;;;;;;;;;;4982674;28;20058;-84
2022/03/18 09:10:23;;;;;;;12.73;3.97;;;;;;;;;;5006269;28;20054;-85
2022/03/18 09:12:52;;;;;;;12.73;4.25;;;;;;;;;;4990729;28;20083;-84
2022/03/18 09:15:18;;;;;;;18.13;4.20;;;;;;;;;;5027165;28;20054;-84
2022/03/18 09:17:44;;;;;;;13.25;3.88;;;;;;;;;;5006304;28;20059;-84
2022/03/18 09:20:11;;;;;;;10.02;3.63;;;;;;;;;;5000938;28;20517;-84
2022/03/18 09:22:38;;;;;;;12.52;3.60;;;;;;;;;;5008562;28;20050;-84
2022/03/18 09:25:05;;;;;;;13.27;3.63;;;;;;;;;;5002564;28;20132;-84
2022/03/18 09:27:31;;;;;;;13.93;3.75;;;;;;;;;;5007610;28;20106;-84
2022/03/18 09:30:00;;;;;;;11.35;3.45;;;;;;;;;;5002007;28;20042;-84
2022/03/18 09:32:30;;;;;;;14.30;3.90;;;;;;;;;;5007106;28;20121;-84
2022/03/18 09:34:57;;;;;;;13.85;3.78;;;;;;;;;;4990062;28;20134;-84
2022/03/18 09:37:28;;;;;;;11.70;4.07;;;;;;;;;;4994785;28;20111;-84
2022/03/18 09:39:55;;;;;;;12.45;3.85;;;;;;;;;;5017272;28;20112;-84
2022/03/18 09:42:57;;;;;;;10.55;3.70;;;;;;;;;;5019388;28;20103;-84
2022/03/18 09:45:30;;;;;;;12.43;4.07;;;;;;;;;;5019475;28;20062;-84
2022/03/18 09:47:58;;;;;;;11.07;3.90;;;;;;;;;;5020578;28;20098;-84
2022/03/18 09:50:24;;;;;;;11.68;4.45;;;;;;;;;;5012406;28;20084;-84
2022/03/18 09:52:51;;;;;;;11.93;4.57;;;;;;;;;;4994240;28;20054;-83
2022/03/18 09:55:17;;;;;;;13.48;4.00;;;;;;;;;;5007356;28;20077;-83
2022/03/18 09:57:44;;;;;;;11.73;4.45;;;;;;;;;;5013390;28;20997;-84
2022/03/18 10:00:11;;;;;;;10.02;4.55;;;;;;;;;;5013386;28;20116;-83
2022/03/18 10:02:38;;;;;;;13.20;4.90;;;;;;;;;;5005766;28;20070;-83
2022/03/18 10:05:14;;;;;;;27.75;5.30;;;;;;;;;;4997737;28;20892;-84
2022/03/18 10:07:53;;;;;;;11.18;4.22;;;;;;;;;;5011356;28;20058;-84
2022/03/18 10:10:20;;;;;;;13.65;4.63;;;;;;;;;;5000844;28;20065;-84
2022/03/18 10:12:51;;;;;;;14.55;4.70;;;;;;;;;;5012306;28;20194;-83
2022/03/18 10:15:19;;;;;;;15.10;4.78;;;;;;;;;;5011545;28;20062;-83
2022/03/18 10:17:49;;;;;;;14.40;4.65;;;;;;;;;;5012522;28;20046;-83
2022/03/18 10:20:26;;;;;;;9.93;4.28;;;;;;;;;;5000686;28;20050;-83
2022/03/18 10:22:53;;;;;;;13.13;5.30;;;;;;;;;;4993979;28;20114;-83
2022/03/18 10:25:35;;;;;;;14.40;4.63;;;;;;;;;;5011650;28;20055;-83
2022/03/18 10:28:01;;;;;;;12.30;5.05;;;;;;;;;;4995225;28;20061;-83
2022/03/18 10:30:28;;;;;;;11.48;4.63;;;;;;;;;;5014759;28;20050;-83
2022/03/18 10:32:54;;;;;;;10.15;4.82;;;;;;;;;;5010647;28;20062;-83
2022/03/18 10:38:35;;;;;;;22.00;5.18;;;;;;;;;;5011784;28;20058;-83
2022/03/18 10:41:05;;;;;;;9.13;4.15;;;;;;;;;;5008311;28;20051;-83
2022/03/18 10:43:32;;;;;;;;;;;;;;;;;;5007774;28;20105;-83
2022/03/18 10:45:59;;;;;;;16.33;5.18;;;;;;;;;;5001725;28;43716;-83
2022/03/18 10:48:25;;;;;;;19.20;4.95;;;;;;;;;;4994215;28;20804;-83
2022/03/18 10:51:06;;;;;;;12.00;4.53;;;;;;;;;;5017698;28;20054;-82
2022/03/18 10:53:33;;;;;;;15.27;4.90;;;;;;;;;;4994055;28;20055;-82
2022/03/18 10:56:01;;;;;;;14.80;4.65;;;;;;;;;;5015729;28;20062;-82
2022/03/18 10:58:32;;;;;;;13.60;4.95;;;;;;;;;;5000054;28;20058;-82
2022/03/18 11:01:02;;;;;;;11.25;4.65;;;;;;;;;;4982781;28;20054;-82
2022/03/18 11:03:30;;;;;;;10.05;4.13;;;;;;;;;;5013865;28;20058;-82
2022/03/18 11:06:02;;;;;;;11.65;4.85;;;;;;;;;;4997021;28;20046;-82
2022/03/18 11:08:35;;;;;;;14.52;4.68;;;;;;;;;;5014195;28;20062;-82
2022/03/18 11:11:07;;;;;;;10.73;4.43;;;;;;;;;;5008079;28;20073;-82
2022/03/18 11:13:53;;;;;;;10.07;4.38;;;;;;;;;;5008449;28;20133;-82
2022/03/18 11:16:28;;;;;;;10.48;4.50;;;;;;;;;;4989034;28;20134;-82
2022/03/18 11:18:56;;;;;;;13.40;4.75;;;;;;;;;;4991998;28;20105;-82
2022/03/18 11:21:25;;;;;;;11.43;4.78;;;;;;;;;;5018938;28;20046;-82
2022/03/18 11:23:55;;;;;;;10.25;4.80;;;;;;;;;;5011001;28;20919;-82
2022/03/18 11:26:21;;;;;;;11.13;4.70;;;;;;;;;;5018042;28;20054;-82
2022/03/18 11:29:04;;;;;;;9.30;4.30;;;;;;;;;;5012460;28;21150;-82
2022/03/18 11:31:31;;;;;;;11.02;4.47;;;;;;;;;;5011131;28;20576;-81
2022/03/18 11:34:17;;;;;;;13.30;4.30;;;;;;;;;;5002725;28;20038;-82
2022/03/18 11:36:45;;;;;;;14.38;4.28;;;;;;;;;;5010957;28;20867;-81
2022/03/18 11:39:18;;;;;;;12.82;4.32;;;;;;;;;;5007061;28;20158;-82
2022/03/18 11:42:03;;;;;;;10.75;4.50;;;;;;;;;;5011397;28;20050;-82
2022/03/18 11:44:37;;;;;;;10.77;4.05;;;;;;;;;;5010255;28;20090;-82
2022/03/18 11:47:18;;;;;;;8.52;4.20;;;;;;;;;;4985988;28;20090;-82
2022/03/18 11:49:54;;;;;;;12.32;4.28;;;;;;;;;;5013382;28;20049;-82
2022/03/18 11:52:23;;;;;;;11.05;4.32;;;;;;;;;;4995699;28;20102;-82
2022/03/18 11:54:58;;;;;;;11.55;4.25;;;;;;;;;;5010549;28;20042;-82
2022/03/18 11:57:35;;;;;;;10.18;4.53;;;;;;;;;;5004457;28;20058;-83
2022/03/18 12:00:08;;;;;;;13.32;4.15;;;;;;;;;;5009883;28;20959;-82
2022/03/18 12:02:35;;;;;;;10.38;4.30;;;;;;;;;;5016023;28;20058;-82
2022/03/18 12:05:03;;;;;;;11.18;4.53;;;;;;;;;;5010634;28;20062;-82
2022/03/18 12:07:31;;;;;;;10.13;4.35;;;;;;;;;;5012283;28;20046;-82
2022/03/18 12:10:02;;;;;;;13.95;4.47;;;;;;;;;;5010919;28;20058;-82
2022/03/18 12:12:37;;;;;;;9.55;3.95;;;;;;;;;;5009401;28;20058;-82
2022/03/18 12:15:12;;;;;;;8.55;3.83;;;;;;;;;;4996384;28;20090;-82
2022/03/18 12:17:39;;;;;;;10.68;4.43;;;;;;;;;;5010658;28;20050;-82
2022/03/18 12:20:06;;;;;;;9.27;3.50;;;;;;;;;;5009493;28;20069;-82
2022/03/18 12:22:36;;;;;;;10.95;3.50;;;;;;;;;;5007490;28;20050;-81
2022/03/18 12:25:04;;;;;;;7.57;3.53;;;;;;;;;;4998042;28;20154;-81
2022/03/18 12:27:33;;;;;;;10.55;3.70;;;;;;;;;;5010693;28;20058;-81
2022/03/18 12:30:00;;;;;;;9.80;3.63;;;;;;;;;;5007528;28;20055;-81
2022/03/18 12:32:31;;;;;;;10.88;3.55;;;;;;;;;;5000456;28;20103;-81
2022/03/18 12:34:58;;;;;;;12.00;3.83;;;;;;;;;;5011146;28;20090;-81
2022/03/18 12:37:31;;;;;;;10.13;3.20;;;;;;;;;;5005976;28;20121;-82
2022/03/18 12:40:02;;;;;;;8.68;3.50;;;;;;;;;;5006432;28;20062;-82
2022/03/18 12:42:29;;;;;;;8.50;2.72;;;;;;;;;;5017662;28;20061;-82
2022/03/18 12:45:02;;;;;;;8.75;3.17;;;;;;;;;;5008565;28;20066;-82
2022/03/18 12:47:32;;;;;;;8.93;2.85;;;;;;;;;;5005453;28;20054;-83
2022/03/18 12:50:00;;;;;;;10.20;3.20;;;;;;;;;;5025841;28;20050;-82
2022/03/18 12:52:26;;;;;;;16.70;3.90;;;;;;;;;;5007406;28;20109;-82
2022/03/18 12:55:09;;;;;;;5.38;3.05;;;;;;;;;;5008112;28;20541;-82
2022/03/18 12:57:37;;;;;;;10.05;3.10;;;;;;;;;;5009528;28;20058;-83
2022/03/18 13:00:04;;;;;;;25.15;4.20;;;;;;;;;;5007463;28;20114;-82
2022/03/18 13:02:51;;;;;;;6.20;3.20;;;;;;;;;;4985951;28;20113;-82
2022/03/18 13:05:19;;;;;;;9.13;3.25;;;;;;;;;;4993430;28;20062;-82
2022/03/18 13:07:46;;;;;;;7.05;3.20;;;;;;;;;;4997952;28;20050;-82
2022/03/18 13:10:13;;;;;;;12.45;3.10;;;;;;;;;;5008710;28;20062;-82
2022/03/18 13:12:39;;;;;;;9.63;3.47;;;;;;;;;;5006183;28;20580;-82
2022/03/18 13:15:12;;;;;;;11.20;3.38;;;;;;;;;;5021403;28;20621;-82
2022/03/18 13:17:38;;;;;;;8.65;2.92;;;;;;;;;;4989500;28;20058;-81
2022/03/18 13:20:05;;;;;;;10.13;3.45;;;;;;;;;;5006653;28;20591;-81
2022/03/18 13:22:31;;;;;;;11.13;2.88;;;;;;;;;;5003981;28;20069;-81
2022/03/18 13:24:59;;;;;;;8.20;2.97;;;;;;;;;;5003308;28;20692;-81
2022/03/18 13:27:26;;;;;;;11.73;3.17;;;;;;;;;;5013586;28;20057;-81
2022/03/18 13:32:50;;;;;;;8.73;3.10;;;;;;;;;;5004744;28;20051;-81
2022/03/18 13:35:21;;;;;;;9.88;3.33;;;;;;;;;;5010833;28;20066;-81
2022/03/18 13:38:06;;;;;;;14.88;3.60;;;;;;;;;;5016479;28;20123;-81
2022/03/18 13:40:33;;;;;;;11.00;3.92;;;;;;;;;;5024055;28;20046;-81
2022/03/18 13:43:04;;;;;;;8.25;2.90;;;;;;;;;;5015992;28;20054;-81
2022/03/18 13:45:36;;;;;;;6.53;2.70;;;;;;;;;;5004573;28;20086;-81
2022/03/18 13:48:03;;;;;;;11.57;2.90;;;;;;;;;;5012669;28;20047;-81
2022/03/18 13:50:46;;;;;;;10.65;2.72;;;;;;;;;;5023591;28;20132;-81
2022/03/18 13:53:26;;;;;;;14.00;3.00;;;;;;;;;;5026083;28;21430;-81
2022/03/18 13:55:53;;;;;;;9.43;2.58;;;;;;;;;;4981705;28;20154;-81
2022/03/18 13:58:27;;;;;;;7.13;2.00;;;;;;;;;;5009444;28;20062;-81
2022/03/18 14:01:04;;;;;;;6.03;2.28;;;;;;;;;;5010895;28;20061;-81
2022/03/18 14:03:31;;;;;;;10.18;2.88;;;;;;;;;;5004868;28;20055;-81
2022/03/18 14:05:59;;;;;;;10.15;2.75;;;;;;;;;;4974268;28;20047;-81
2022/03/18 14:08:27;;;;;;;7.30;2.47;;;;;;;;;;4991123;28;20061;-81
2022/03/18 14:10:59;;;;;;;9.90;3.00;;;;;;;;;;5013094;28;20038;-81
2022/03/18 14:13:27;;;;;;;7.15;2.70;;;;;;;;;;5009879;28;20714;-81
2022/03/18 14:15:54;;;;;;;7.22;2.22;;;;;;;;;;5032305;28;20050;-81
2022/03/18 14:18:23;;;;;;;7.97;2.70;;;;;;;;;;5008231;28;20559;-81
2022/03/18 14:20:49;;;;;;;7.40;2.60;;;;;;;;;;4994421;28;20055;-81
2022/03/18 14:23:18;;;;;;;10.02;3.05;;;;;;;;;;4976449;28;20047;-81
2022/03/18 14:25:44;;;;;;;7.78;2.35;;;;;;;;;;5004382;28;20077;-81
2022/03/18 14:28:18;;;;;;;11.65;2.60;;;;;;;;;;5012283;28;20054;-81
2022/03/18 14:30:45;;;;;;;12.45;2.65;;;;;;;;;;5001175;28;20057;-81
2022/03/18 14:33:15;;;;;;;8.13;2.78;;;;;;;;;;5007912;28;20142;-82
2022/03/18 14:35:41;;;;;;;10.15;2.60;;;;;;;;;;5007476;28;20076;-82
2022/03/18 14:38:07;;;;;;;9.55;2.40;;;;;;;;;;5001195;28;20109;-83
2022/03/18 14:40:35;;;;;;;11.40;2.97;;;;;;;;;;4994436;28;20121;-82
2022/03/18 14:43:03;;;;;;;8.10;2.45;;;;;;;;;;5010986;28;20054;-82
2022/03/18 14:45:29;;;;;;;8.98;3.03;;;;;;;;;;5020965;28;20057;-82
2022/03/18 14:47:56;;;;;;;9.63;3.00;;;;;;;;;;5022529;28;20061;-83
2022/03/18 14:50:22;;;;;;;8.77;3.00;;;;;;;;;;5021339;28;20043;-83
2022/03/18 14:52:48;;;;;;;9.15;3.33;;;;;;;;;;5016455;28;20050;-83
2022/03/18 14:58:02;;;;;;;10.68;3.25;;;;;;;;;;5009388;28;20047;-82
2022/03/18 15:00:29;;;;;;;12.77;3.45;;;;;;;;;;5007159;28;20043;-80
2022/03/18 15:02:56;;;;;;;9.55;3.08;;;;;;;;;;5007036;28;20066;-82
2022/03/18 15:05:22;;;;;;;10.27;3.30;;;;;;;;;;5004789;28;20054;-82
2022/03/18 15:07:49;;;;;;;12.73;3.53;;;;;;;;;;5013803;28;20049;-82
2022/03/18 15:10:15;;;;;;;11.25;3.42;;;;;;;;;;5019439;28;20047;-84
2022/03/18 15:12:42;;;;;;;9.27;3.88;;;;;;;;;;5019366;28;20109;-83